메인 페이지
METAR-TAF:

METAR-TAF

공항 :

댈러스 러브 필드

댈러스, 텍사스, 미국

위도: 32-51-09N, 경도: 096-51-20W, 고도: 148m

현재 날씨관측

예보는 38분 전, 08:53시(UTC)에 발표되었습니다.
무풍
온도 18°C
습도 73%
기압 1016 hPa
시정: 16.1km
고도 1300ft 상공 흐림

METAR: KDAL 200853Z 00000KT 10SM OVC013 18/13 A3000 RMK AO2 SLP156 T01780133 58001

시각: 04:31 (09:31 UTC)

예보

예보는 37분 전, 08:54시(UTC)에 발표되었습니다.
예보 대상 시간: 20일 09시부터 21일 06시까지 (UTC)
북북동3kt
시정: 10km
고도 1400ft 상공 흐림
20일 1100시부터 (UTC)
북동6kt
시정: 10km
고도 1100ft 상공 흐림
시계 내 소나기
20일 1500시부터 (UTC)
6kt
시정: 10km
고도 1200ft 상공 흐림
20일 1900시부터 (UTC)
7kt
시정: 10km
고도 4500ft 상공 구름 보통

TAF: KDAL 200854Z 2009/2106 02003KT P6SM OVC014 FM201100 05006KT P6SM VCSH OVC011 FM201500 17006KT P6SM OVC012 FM201900 17007KT P6SM SCT045

4,000개 이상의 공항 관측 자료 및 예보 (METAR 및 TAF 보고).

지도상에서 검색 가능한 기상관측소가 노란 점과 빨간 점으로 표시되어 있습니다.

기상관측소 명을 보려면 표시 위로 마우스를 이동하세요.

날씨 관측과 예보를 보려면 클릭하세요.

지도 변경 : 확대하려면 엑스 표시가 있는 녹색 버튼, 축소하려면 빼기 표시가 있는 녹색 버튼, 다음 페이지의 지도를 보려면 녹색 화살표를 클릭하세요.


METAR-TAF: